Latest Weather Observations for Dartmoor

IDV60801

Issued at 3:42 pm EST Wednesday 20 June 2018 (issued every 10 minutes, with the page automatically refreshed every 10 minutes)

About weather observations | Map of weather stations | Latest weather observations for VIC | Other Formats
Station Details ID: 090194 Name: DARTMOOR Lat: -37.92 Lon: 141.26 Height: 51.0 m
Data from the previous 72 hours. | See also: Recent months at Dartmoor
Date/Time
EST
Temp
°C
App
Temp
°C
Dew
Point
°C
Rel
Hum
%
Delta-T
°C
Wind Press
QNH
hPa
Press
MSL
hPa
Rain since
9am
mm
Dir  Spd
km/h
Gust
km/h
Spd
kts
Gust
kts
20/03:30pm 11.9 8.5 6.0 67 2.8 NNW 13 24 7 13 1024.7 1024.8 0.0
20/03:00pm 11.6 6.7 5.0 64 3.0 N 20 28 11 15 1024.4 1024.5 0.0
20/02:30pm 11.9 8.6 6.2 68 2.7 N 13 22 7 12 1024.3 1024.4 0.0
20/02:00pm 11.4 7.9 5.5 67 2.7 NNW 13 28 7 15 1024.6 1024.7 0.0
20/01:30pm 11.1 6.8 5.2 67 2.7 NNW 17 28 9 15 1024.8 1024.9 0.0
20/01:00pm 10.8 7.0 6.0 72 2.2 NNW 15 22 8 12 1025.1 1025.2 0.0
20/12:30pm 10.7 8.2 6.6 76 1.9 NNW 9 13 5 7 1025.3 1025.4 0.0
20/12:00pm 9.7 7.5 6.1 78 1.7 NNW 7 13 4 7 1025.6 1025.7 0.0
20/11:30am 8.8 6.1 5.4 79 1.5 N 9 17 5 9 1025.5 1025.6 0.0
20/11:00am 8.4 4.8 5.2 80 1.4 NNE 13 20 7 11 1025.7 1025.8 0.0
20/10:30am 7.6 3.6 4.7 82 1.3 N 15 20 8 11 1026.2 1026.3 0.0
20/10:00am 7.2 3.1 4.3 82 1.2 N 15 22 8 12 1026.0 1026.1 0.0
20/09:30am 6.0 3.6 4.5 90 0.6 N 6 7 3 4 1026.0 1026.1 0.0
20/09:00am 5.6 2.9 3.9 89 0.7 N 7 9 4 5 1026.0 1026.1 0.0
20/08:30am 5.9 3.2 3.9 87 0.8 N 7 13 4 7 1025.7 1025.8 0.0
20/08:00am 6.1 2.7 4.1 87 0.8 NNE 11 17 6 9 1025.3 1025.4 0.0
20/07:30am 6.1 2.7 4.1 87 0.9 NNE 11 17 6 9 1025.0 1025.1 0.0
20/07:00am 5.9 2.6 4.5 91 0.6 NNE 11 20 6 11 1025.0 1025.1 0.0
20/06:30am 4.8 1.7 3.8 93 0.4 NE 9 13 5 7 1024.8 1024.9 0.0
20/06:00am 5.2 2.6 4.2 93 0.4 NNE 7 13 4 7 1025.1 1025.2 0.0
20/05:30am 4.7 2.0 3.8 94 0.4 NNE 7 11 4 6 1025.0 1025.1 0.0
20/05:00am 4.7 2.2 3.8 94 0.4 NNE 6 7 3 4 1024.9 1025.0 0.0
20/04:30am 5.0 2.9 4.1 94 0.4 NNE 4 6 2 3 1024.9 1025.0 0.0
20/04:00am 5.1 2.7 4.2 94 0.4 NNE 6 9 3 5 1025.1 1025.2 0.0
20/03:30am 4.5 2.0 3.9 96 0.3 NE 6 9 3 5 1025.1 1025.2 0.0
20/03:00am 4.7 2.3 4.1 96 0.3 NNE 6 9 3 5 1025.2 1025.3 0.0
20/02:30am 4.1 1.5 3.4 95 0.3 NE 6 7 3 4 1024.9 1025.0 0.0
20/02:00am 4.9 2.5 4.2 95 0.3 NNE 6 7 3 4 1024.8 1024.9 0.0
20/01:30am 4.3 2.1 3.6 95 0.3 N 4 6 2 3 1024.9 1025.0 0.0
20/01:00am 4.9 2.4 3.7 92 0.5 N 6 6 3 3 1025.0 1025.1 0.0
20/12:30am 5.4 3.0 4.2 92 0.5 N 6 6 3 3 1025.1 1025.2 0.0
20/12:00am 6.0 3.5 4.0 87 0.8 N 6 9 3 5 1025.2 1025.3 0.0
 
Date/Time
EST
Temp
°C
App
Temp
°C
Dew
Point
°C
Rel
Hum
%
Delta-T
°C
Wind Press
QNH
hPa
Press
MSL
hPa
Rain since
9am
mm
Dir  Spd
km/h
Gust
km/h
Spd
kts
Gust
kts
19/11:30pm 6.2 3.2 4.2 87 0.9 NNE 9 13 5 7 1025.2 1025.3 0.0
19/11:00pm 6.3 3.4 4.5 88 0.8 NNE 9 13 5 7 1025.3 1025.4 0.0
19/10:30pm 5.9 3.4 4.7 92 0.5 NE 7 11 4 6 1025.2 1025.3 0.0
19/10:00pm 5.7 3.1 4.0 89 0.7 NE 7 11 4 6 1025.2 1025.3 0.0
19/09:30pm 6.4 3.8 4.4 87 0.9 NNE 7 9 4 5 1025.5 1025.6 0.0
19/09:00pm 6.6 4.0 4.4 86 0.9 NNE 7 9 4 5 1025.5 1025.6 0.0
19/08:30pm 6.4 3.5 4.7 89 0.7 NE 9 13 5 7 1025.4 1025.5 0.0
19/08:00pm 7.0 4.5 4.8 86 1.0 NNE 7 9 4 5 1025.5 1025.6 0.0
19/07:30pm 7.0 4.6 5.2 88 0.8 NNE 7 11 4 6 1025.5 1025.6 0.0
19/07:00pm 6.8 4.1 5.6 92 0.5 NE 9 13 5 7 1025.4 1025.5 0.0
19/06:30pm 6.8 4.4 5.3 90 0.7 NE 7 9 4 5 1025.4 1025.5 0.0
19/06:00pm 7.4 5.2 5.2 86 1.0 NE 6 9 3 5 1025.5 1025.6 0.0
19/05:30pm 8.1 5.8 5.6 84 1.1 NE 7 9 4 5 1025.4 1025.5 0.0
19/05:00pm 8.8 6.7 5.7 81 1.4 NE 6 9 3 5 1025.4 1025.5 0.0
19/04:30pm 9.4 7.1 5.6 77 1.7 NNE 7 11 4 6 1025.6 1025.7 0.0
19/04:00pm 10.1 7.9 6.1 76 1.8 NNE 7 11 4 6 1025.3 1025.4 0.0
19/03:30pm 10.0 7.6 5.4 73 2.1 NNE 7 11 4 6 1025.2 1025.3 0.0
19/03:00pm 10.2 7.5 5.6 73 2.1 NNE 9 15 5 8 1025.4 1025.5 0.0
19/02:30pm 10.1 6.6 5.3 72 2.2 NNE 13 20 7 11 1025.2 1025.3 0.0
19/02:00pm 10.5 7.3 5.3 70 2.4 NNE 11 17 6 9 1025.7 1025.8 0.0
19/01:30pm 10.8 8.9 6.7 76 1.9 N 6 9 3 5 1026.4 1026.5 0.0
19/01:00pm 10.4 7.9 6.5 77 1.8 NNW 9 13 5 7 1026.8 1026.9 0.0
19/12:30pm 10.1 8.1 7.0 81 1.5 N 7 11 4 6 1027.2 1027.3 0.0
19/12:00pm 9.3 7.3 7.1 86 1.0 N 7 11 4 6 1027.4 1027.5 0.0
19/11:30am 8.3 6.6 8.2 99 0.0 N 7 9 4 5 1027.8 1027.9 0.0
19/11:00am 7.1 5.3 7.1 100 0.0 NNE 6 9 3 5 1027.7 1027.8 0.0
19/10:30am 5.5 3.3 5.5 100 0.0 N 6 9 3 5 1028.5 1028.5 0.0
19/10:00am 4.2 1.8 4.2 100 0.0 NE 6 9 3 5 1028.3 1028.3 0.0
19/09:30am 3.2 0.6 3.1 99 0.0 NE 6 7 3 4 1028.9 1028.9 0.0
19/09:00am 2.5 -0.2 2.4 99 0.0 ENE 6 9 3 5 1028.7 1028.7 0.4
19/08:30am 2.5 -0.2 2.4 99 0.0 NNE 6 9 3 5 1028.7 1028.7 0.4
19/08:00am 2.1 -0.7 2.0 99 0.0 NE 6 7 3 4 1028.3 1028.3 0.4
19/07:30am 3.0 0.7 2.9 99 0.0 NNE 4 6 2 3 1028.5 1028.5 0.4
19/07:00am 2.7 0.4 2.6 99 0.0 ENE 4 6 2 3 1027.9 1028.0 0.4
19/06:30am 2.6 0.6 2.5 99 0.0 E 2 4 1 2 1027.4 1027.5 0.4
19/06:00am 3.3 1.1 3.2 99 0.0 E 4 6 2 3 1027.5 1027.6 0.4
19/05:30am 3.1 0.5 3.0 99 0.0 E 6 7 3 4 1027.9 1028.0 0.4
19/05:00am 3.2 1.3 3.1 99 0.0 WNW 2 4 1 2 1028.6 1028.6 0.4
19/04:30am 4.5 3.3 4.4 99 0.0 CALM 0 0 0 0 1028.8 1028.8 0.4
19/04:00am 5.1 3.2 5.0 99 0.0 WNW 4 6 2 3 1028.5 1028.5 0.4
19/03:30am 5.8 4.1 5.7 99 0.0 ENE 4 4 2 2 1028.0 1028.1 0.2
19/03:00am 6.1 4.4 6.0 99 0.0 ENE 4 6 2 3 1028.0 1028.1 0.2
19/02:30am 6.5 4.5 6.4 99 0.0 E 6 7 3 4 1027.8 1027.9 0.2
19/02:00am 7.2 5.8 7.1 99 0.0 WNW 4 7 2 4 1028.9 1028.9 0.2
19/01:30am 6.9 5.0 6.8 99 0.0 W 6 7 3 4 1028.8 1028.8 0.2
19/01:00am 7.0 5.1 6.7 98 0.1 WSW 6 7 3 4 1029.0 1029.0 0.2
19/12:30am 7.0 6.2 6.6 97 0.2 CALM 0 0 0 0 1028.9 1028.9 0.2
19/12:00am 6.6 5.3 5.9 95 0.3 ENE 2 2 1 1 1028.4 1028.4 0.0
 
Date/Time
EST
Temp
°C
App
Temp
°C
Dew
Point
°C
Rel
Hum
%
Delta-T
°C
Wind Press
QNH
hPa
Press
MSL
hPa
Rain since
9am
mm
Dir  Spd
km/h
Gust
km/h
Spd
kts
Gust
kts
18/11:30pm 6.7 5.0 5.7 93 0.4 ENE 4 7 2 4 1028.4 1028.4 0.0
18/11:00pm 7.0 6.0 5.5 90 0.7 CALM 0 4 0 2 1028.5 1028.5 0.0
18/10:30pm 7.3 5.3 6.1 92 0.5 W 6 9 3 5 1028.9 1028.9 0.0
18/10:00pm 6.7 5.0 6.1 96 0.3 WSW 4 6 2 3 1028.8 1028.8 0.0
18/09:30pm 6.7 5.7 5.7 93 0.4 CALM 0 0 0 0 1028.9 1028.9 0.0
18/09:00pm 7.2 5.5 5.8 91 0.6 SE 4 6 2 3 1029.1 1029.1 0.0
18/08:30pm 8.3 6.3 6.3 87 0.9 ESE 6 9 3 5 1029.4 1029.4 0.0
18/08:00pm 8.4 7.6 6.7 89 0.8 CALM 0 0 0 0 1029.6 1029.6 0.0
18/07:30pm 8.9 7.4 6.7 86 1.0 S 4 6 2 3 1029.6 1029.6 0.0
18/07:00pm 8.9 6.9 6.3 84 1.2 SSW 6 7 3 4 1029.4 1029.4 0.0
18/06:30pm 9.2 7.0 6.3 82 1.3 S 7 9 4 5 1029.2 1029.2 0.0
18/06:00pm 9.3 7.2 6.6 83 1.2 S 7 9 4 5 1029.4 1029.4 0.0
18/05:30pm 9.8 7.2 6.2 78 1.7 S 9 13 5 7 1029.2 1029.2 0.0
18/05:00pm 9.8 7.7 6.7 81 1.4 S 7 9 4 5 1029.1 1029.1 0.0
18/04:30pm 10.3 8.1 6.1 75 2.0 SSE 7 11 4 6 1029.0 1029.0 0.0
18/04:00pm 10.4 8.5 6.9 79 1.6 SSE 6 7 3 4 1029.2 1029.2 0.0
18/03:30pm 10.6 8.0 6.0 73 2.1 SSE 9 15 5 8 1029.1 1029.1 0.0
18/03:00pm 10.9 8.8 6.8 76 1.9 SSE 7 13 4 7 1029.0 1029.0 0.0
18/02:30pm 11.1 9.3 7.2 77 1.9 SSE 6 7 3 4 1028.9 1028.9 0.0
18/02:00pm 11.0 8.9 6.6 74 2.1 S 7 9 4 5 1028.9 1028.9 0.0
18/01:30pm 11.0 8.9 6.7 75 2.0 S 7 11 4 6 1028.8 1028.8 0.0
18/01:00pm 10.8 8.3 6.6 75 2.0 S 9 13 5 7 1029.3 1029.3 0.0
18/12:30pm 10.9 7.9 6.1 72 2.2 SSE 11 19 6 10 1029.5 1029.5 0.0
18/12:00pm 11.0 7.3 6.4 73 2.1 SSE 15 22 8 12 1029.8 1029.8 0.0
18/11:30am 10.5 6.1 6.5 76 1.9 SSE 19 26 10 14 1030.0 1030.1 0.0
18/11:00am 9.7 7.1 7.6 87 1.0 SSE 11 19 6 10 1030.2 1030.3 0.0
18/10:30am 8.7 7.5 8.1 96 0.3 SSW 4 6 2 3 1030.1 1030.2 0.0
18/10:00am 7.7 6.4 7.6 99 0.0 ESE 4 6 2 3 1030.0 1030.1 0.0
18/09:30am 7.3 6.7 7.2 99 0.0 CALM 0 7 0 4 1029.8 1029.8 0.0
18/09:00am 6.5 5.7 6.4 99 0.0 CALM 0 0 0 0 1030.0 1030.1 1.8
18/08:30am 5.7 4.3 5.6 99 0.0 SSW 2 4 1 2 1029.6 1029.6 1.8
18/08:00am 4.6 3.0 4.5 99 0.0 SSW 2 4 1 2 1029.6 1029.6 1.8
18/07:30am 4.0 1.9 3.7 98 0.1 E 4 6 2 3 1029.0 1029.0 1.8
18/07:00am 5.6 3.4 5.5 99 0.0 S 6 9 3 5 1028.9 1028.9 1.8
18/06:30am 5.4 2.6 5.0 97 0.2 SSW 9 15 5 8 1028.6 1028.6 1.8
18/06:00am 5.2 4.0 4.6 96 0.3 CALM 0 0 0 0 1028.5 1028.5 1.8
18/05:30am 6.1 3.9 5.5 96 0.3 SSW 6 9 3 5 1028.1 1028.2 1.8
18/05:00am 5.0 2.9 4.1 94 0.4 E 4 6 2 3 1028.0 1028.1 1.8
18/04:30am 5.8 3.3 4.9 94 0.4 S 7 9 4 5 1027.7 1027.8 1.8
18/04:00am 6.7 3.7 6.0 95 0.3 S 11 17 6 9 1027.9 1028.0 1.8
18/03:30am 6.2 3.5 5.8 97 0.2 S 9 15 5 8 1027.6 1027.7 1.8
18/03:00am 5.8 3.6 5.4 97 0.2 SW 6 7 3 4 1027.6 1027.7 1.8
18/02:30am 6.5 4.2 5.9 96 0.3 WSW 7 13 4 7 1027.5 1027.6 1.8
18/02:00am 6.8 4.6 6.4 97 0.2 WSW 7 9 4 5 1027.3 1027.4 1.8
18/01:30am 6.3 4.2 5.6 95 0.3 S 6 9 3 5 1027.1 1027.2 1.8
18/01:00am 7.1 4.9 6.4 95 0.3 SSW 7 9 4 5 1027.3 1027.4 1.8
18/12:30am 7.0 3.8 6.7 98 0.1 S 13 24 7 13 1027.5 1027.6 1.8
18/12:00am 6.3 4.2 5.9 97 0.2 W 6 7 3 4 1027.4 1027.5 1.8
 
Date/Time
EST
Temp
°C
App
Temp
°C
Dew
Point
°C
Rel
Hum
%
Delta-T
°C
Wind Press
QNH
hPa
Press
MSL
hPa
Rain since
9am
mm
Dir  Spd
km/h
Gust
km/h
Spd
kts
Gust
kts
17/11:30pm 5.7 4.6 5.0 95 0.3 CALM 0 0 0 0 1027.6 1027.7 1.8
17/11:00pm 6.5 4.2 5.6 94 0.4 SE 7 11 4 6 1027.3 1027.4 1.8
17/10:30pm 7.6 5.2 6.9 95 0.3 SSW 9 17 5 9 1027.4 1027.5 1.8
17/10:00pm 7.1 4.9 6.0 93 0.5 SSE 7 9 4 5 1027.1 1027.2 1.8
17/09:30pm 7.6 4.8 6.9 95 0.3 S 11 19 6 10 1027.2 1027.3 1.8
17/09:00pm 7.0 4.8 6.1 94 0.4 S 7 7 4 4 1026.8 1026.9 1.6
17/08:30pm 7.9 4.3 6.8 93 0.5 SSE 15 22 8 12 1026.6 1026.7 1.6
17/08:00pm 7.5 4.8 5.6 88 0.8 SSW 9 15 5 8 1026.4 1026.5 1.4
17/07:30pm 8.0 4.4 4.8 80 1.4 S 13 17 7 9 1026.1 1026.2 1.2
17/07:00pm 8.3 4.5 5.9 85 1.1 S 15 30 8 16 1025.8 1025.9 1.2
17/06:30pm 9.0 4.2 4.4 73 2.0 SSW 19 33 10 18 1025.2 1025.3 1.2
17/06:00pm 8.7 5.9 5.3 79 1.5 S 9 13 5 7 1024.9 1025.0 1.2
17/05:30pm 8.9 5.4 5.6 80 1.5 SSW 13 19 7 10 1024.7 1024.8 1.2
17/05:00pm 9.1 4.0 6.2 82 1.3 SSE 22 30 12 16 1024.5 1024.6 1.2
17/04:30pm 9.9 6.7 5.1 72 2.2 SSW 11 17 6 9 1024.1 1024.2 1.2
17/04:00pm 10.1 5.8 5.3 72 2.2 SSW 17 24 9 13 1023.9 1024.0 1.2

Other Formats:

Comma delimited format used in spreadsheet applications
http://www.bom.gov.au/fwo/IDV60801/IDV60801.95822.axf

JavaScript Object Notation format (JSON) in row-major order
http://www.bom.gov.au/fwo/IDV60801/IDV60801.95822.json